Time;durP1;ratioP1;P1;durP2;ratioP2;P2;SDS_P1;SDS_P2;PMS_P1;PMS_P2;Temp;Humidity;BMP_temperature;BMP_pressure;BME280_temperature;BME280_humidity;BME280_pressure;Samples;Min_cycle;Max_cycle;Signal;HPM_P1;HPM_P2
2021/01/06 00:01:28;;;;;;;6.40;2.83;;;17.20;99.90;;;;;;4153683;34;20103;-84
2021/01/06 00:03:56;;;;;;;9.23;2.62;;;17.10;99.90;;;;;;4151978;34;20053;-84
2021/01/06 00:06:29;;;;;;;8.60;2.08;;;17.10;99.90;;;;;;4141795;34;20048;-85
2021/01/06 00:08:58;;;;;;;4.53;1.02;;;17.10;99.90;;;;;;4145780;34;20182;-85
2021/01/06 00:11:38;;;;;;;5.30;1.30;;;17.10;99.90;;;;;;4154121;34;20068;-84
2021/01/06 00:14:11;;;;;;;13.77;1.67;;;17.00;99.90;;;;;;4152584;34;20400;-84
2021/01/06 00:16:39;;;;;;;5.55;3.00;;;17.00;99.90;;;;;;4145263;34;20084;-85
2021/01/06 00:19:12;;;;;;;12.68;6.32;;;16.90;99.90;;;;;;4157068;34;20096;-85
2021/01/06 00:21:40;;;;;;;18.02;13.60;;;16.90;99.90;;;;;;4153391;34;20499;-85
2021/01/06 00:24:09;;;;;;;6.00;5.43;;;16.80;99.90;;;;;;4149143;34;20065;-84
2021/01/06 00:26:37;;;;;;;7.75;7.05;;;16.80;99.90;;;;;;4156391;34;20056;-85
2021/01/06 00:29:10;;;;;;;7.15;5.70;;;16.80;99.90;;;;;;4144999;34;20143;-85
2021/01/06 00:31:40;;;;;;;12.50;4.65;;;16.80;99.90;;;;;;4146447;34;20094;-85
2021/01/06 00:34:09;;;;;;;9.13;4.70;;;16.90;99.90;;;;;;4139601;34;20092;-85
2021/01/06 00:36:37;;;;;;;5.37;4.85;;;17.00;99.90;;;;;;4147064;34;20187;-84
2021/01/06 00:39:06;;;;;;;9.00;3.95;;;17.00;99.90;;;;;;4142579;34;20452;-84
2021/01/06 00:41:35;;;;;;;5.82;5.03;;;17.10;99.90;;;;;;4143905;34;20412;-85
2021/01/06 00:44:04;;;;;;;6.85;6.10;;;17.10;99.90;;;;;;4139752;34;20121;-85
2021/01/06 00:46:35;;;;;;;6.28;5.78;;;17.10;99.90;;;;;;4144148;34;20146;-84
2021/01/06 00:49:04;;;;;;;6.90;6.40;;;17.10;99.90;;;;;;4141437;34;20055;-85
2021/01/06 00:51:33;;;;;;;10.77;9.65;;;17.10;99.90;;;;;;4137655;34;20126;-85
2021/01/06 00:54:03;;;;;;;4.93;1.37;;;17.20;99.90;;;;;;4141031;34;20516;-85
2021/01/06 00:56:33;;;;;;;8.85;7.97;;;17.20;99.90;;;;;;4132840;34;20146;-85
2021/01/06 00:59:02;;;;;;;18.42;17.00;;;17.20;99.90;;;;;;4141610;34;20060;-85
2021/01/06 01:01:30;;;;;;;7.62;2.20;;;17.30;99.90;;;;;;4140438;34;20598;-84
2021/01/06 01:03:59;;;;;;;16.58;2.58;;;17.30;99.90;;;;;;4141343;34;20543;-84
2021/01/06 01:06:32;;;;;;;4.22;2.72;;;17.30;99.90;;;;;;4154773;34;20060;-85
2021/01/06 01:09:04;;;;;;;8.18;1.73;;;17.30;99.90;;;;;;4128124;34;20148;-83
2021/01/06 01:11:38;;;;;;;3.22;0.70;;;17.20;99.90;;;;;;4141150;34;20204;-85
2021/01/06 01:14:06;;;;;;;7.30;1.85;;;17.20;99.90;;;;;;4145390;34;21276;-85
2021/01/06 01:16:41;;;;;;;6.93;1.12;;;17.20;99.90;;;;;;4161076;34;20465;-85
2021/01/06 01:19:12;;;;;;;3.60;0.80;;;17.20;99.90;;;;;;4154974;34;20103;-85
2021/01/06 01:21:40;;;;;;;4.15;1.00;;;17.30;99.90;;;;;;4145091;34;20170;-85
2021/01/06 01:24:08;;;;;;;6.10;1.12;;;17.30;99.90;;;;;;4134583;34;20826;-85
2021/01/06 01:26:36;;;;;;;4.10;1.17;;;17.30;99.90;;;;;;4148950;34;20181;-85
2021/01/06 01:29:04;;;;;;;7.25;1.30;;;17.30;99.90;;;;;;4142664;34;20140;-84
2021/01/06 01:31:37;;;;;;;6.55;1.40;;;17.20;99.90;;;;;;4155510;34;20510;-85
2021/01/06 01:34:05;;;;;;;3.92;0.93;;;17.30;99.90;;;;;;4151175;34;20052;-85
2021/01/06 01:36:33;;;;;;;6.70;0.90;;;17.40;99.90;;;;;;4148661;34;20142;-84
2021/01/06 01:39:01;;;;;;;6.50;1.00;;;17.40;99.90;;;;;;4143651;34;20126;-85
2021/01/06 01:41:31;;;;;;;4.72;1.05;;;17.40;99.90;;;;;;4142581;34;20143;-85
2021/01/06 01:43:59;;;;;;;6.62;1.33;;;17.40;99.90;;;;;;4151841;34;20108;-85
2021/01/06 01:47:03;;;;;;;10.43;1.40;;;17.40;99.90;;;;;;4149861;34;20060;-85
2021/01/06 01:49:47;;;;;;;10.48;1.83;;;17.40;99.90;;;;;;4154857;34;20055;-84
2021/01/06 01:52:29;;;;;;;8.18;1.50;;;17.30;99.90;;;;;;4142398;34;20155;-85
2021/01/06 01:55:02;;;;;;;11.18;1.48;;;17.30;99.90;;;;;;4157357;34;20072;-86
2021/01/06 01:57:35;;;;;;;3.90;1.05;;;17.30;99.90;;;;;;4147934;34;20107;-85
2021/01/06 02:00:17;;;;;;;10.30;1.20;;;17.40;99.90;;;;;;4141284;34;20473;-85
2021/01/06 02:03:22;;;;;;;6.90;1.48;;;17.40;99.90;;;;;;4142102;34;20052;-85
2021/01/06 02:06:06;;;;;;;9.47;1.60;;;17.40;99.90;;;;;;4150743;34;20064;-85
2021/01/06 02:08:41;;;;;;;4.68;1.52;;;17.40;99.90;;;;;;4149911;34;20123;-85
2021/01/06 02:11:36;;;;;;;8.00;1.35;;;17.40;99.90;;;;;;4145474;34;20111;-85
2021/01/06 02:14:28;;;;;;;12.95;1.73;;;17.40;99.90;;;;;;4149075;34;20056;-85
2021/01/06 02:17:09;;;;;;;11.30;1.33;;;17.30;99.90;;;;;;4149743;34;20056;-85
2021/01/06 02:19:41;;;;;;;3.20;1.15;;;17.30;99.90;;;;;;4148951;34;20061;-85
2021/01/06 02:22:16;;;;;;;7.05;1.80;;;17.30;99.90;;;;;;4149861;34;20071;-84
2021/01/06 02:24:46;;;;;;;8.32;1.73;;;17.40;99.90;;;;;;4157239;34;20416;-84
2021/01/06 02:27:15;;;;;;;7.20;1.50;;;17.40;99.90;;;;;;4148344;34;20251;-85
2021/01/06 02:29:44;;;;;;;14.82;1.80;;;17.30;99.90;;;;;;4141594;34;20193;-84
2021/01/06 02:32:13;;;;;;;10.85;1.92;;;17.30;99.90;;;;;;4157896;34;20573;-85
2021/01/06 02:34:42;;;;;;;6.90;2.00;;;17.20;99.90;;;;;;4162135;34;20434;-85
2021/01/06 02:37:11;;;;;;;7.75;1.67;;;17.20;99.90;;;;;;4148212;34;20402;-85
2021/01/06 02:39:40;;;;;;;5.35;1.70;;;17.10;99.90;;;;;;4144421;34;20444;-85
2021/01/06 02:42:10;;;;;;;8.30;2.08;;;17.20;99.90;;;;;;4146318;34;20434;-84
2021/01/06 02:44:37;;;;;;;7.35;1.85;;;17.20;99.90;;;;;;4149862;34;20060;-84
2021/01/06 02:47:06;;;;;;;11.43;1.60;;;17.20;99.90;;;;;;4139721;34;20159;-84
2021/01/06 02:49:34;;;;;;;2.45;1.40;;;17.10;99.90;;;;;;4152330;34;20052;-85
2021/01/06 02:52:32;;;;;;;5.60;1.55;;;17.10;99.90;;;;;;4154978;34;20122;-85
2021/01/06 02:55:05;;;;;;;4.93;1.75;;;17.10;99.90;;;;;;4142865;34;20509;-86
2021/01/06 02:57:35;;;;;;;6.70;1.83;;;17.10;99.90;;;;;;4158528;34;20522;-84
2021/01/06 03:00:06;;;;;;;5.72;1.90;;;17.20;99.90;;;;;;4161276;34;20159;-86
2021/01/06 03:02:34;;;;;;;7.05;2.22;;;17.20;99.90;;;;;;4145346;34;20399;-85
2021/01/06 03:05:11;;;;;;;7.03;1.98;;;17.30;99.90;;;;;;4149556;34;20056;-85
2021/01/06 03:07:41;;;;;;;6.47;1.98;;;17.20;99.90;;;;;;4132554;34;20130;-85
2021/01/06 03:13:35;;;;;;;;;;;17.20;99.90;;;;;;4246275;28;20133;-84
2021/01/06 03:16:06;;;;;;;8.73;2.45;;;17.20;99.90;;;;;;4138934;34;19955;-84
2021/01/06 03:18:54;;;;;;;6.55;1.50;;;17.30;99.90;;;;;;4153206;28;20099;31
2021/01/06 03:21:23;;;;;;;4.60;1.37;;;17.20;99.90;;;;;;4175188;28;20566;-85
2021/01/06 03:23:54;;;;;;;4.45;1.33;;;17.30;99.90;;;;;;4158939;34;20052;-85
2021/01/06 03:26:25;;;;;;;6.65;1.92;;;17.30;99.90;;;;;;4169790;34;20428;-85
2021/01/06 03:28:54;;;;;;;5.20;1.40;;;17.20;99.90;;;;;;4161746;34;20051;-85
2021/01/06 03:31:50;;;;;;;8.57;2.15;;;17.30;99.90;;;;;;4175651;34;20090;-84
2021/01/06 03:34:25;;;;;;;5.32;1.48;;;17.30;99.90;;;;;;4157658;34;20123;-85
2021/01/06 03:37:29;;;;;;;7.22;1.00;;;17.20;99.90;;;;;;4160614;34;20135;-85
2021/01/06 03:40:06;;;;;;;8.45;1.40;;;17.10;99.90;;;;;;4167599;34;20408;-85
2021/01/06 03:42:35;;;;;;;5.62;1.50;;;17.00;99.90;;;;;;4167276;34;20096;-85
2021/01/06 03:45:05;;;;;;;6.50;1.48;;;17.00;99.90;;;;;;4167438;34;20131;-85
2021/01/06 03:47:39;;;;;;;4.72;1.30;;;16.90;99.90;;;;;;4161405;34;20408;-84
2021/01/06 03:50:18;;;;;;;;;;;16.90;99.90;;;;;;4162008;34;20557;-85
2021/01/06 03:52:59;;;;;;;7.25;1.08;;;16.90;99.90;;;;;;4152389;34;20001;-85
2021/01/06 03:55:50;;;;;;;6.87;0.98;;;16.90;99.90;;;;;;4159411;34;20094;-85
2021/01/06 03:58:34;;;;;;;5.97;0.98;;;16.90;99.90;;;;;;4160639;34;20115;-85
2021/01/06 04:01:30;;;;;;;7.53;1.10;;;16.90;99.90;;;;;;4157666;34;20053;-84
2021/01/06 04:04:21;;;;;;;7.05;1.50;;;16.80;99.90;;;;;;4162522;34;20281;-85
2021/01/06 04:06:51;;;;;;;4.50;1.42;;;16.90;99.90;;;;;;4157988;34;21613;-85
2021/01/06 04:09:46;;;;;;;2.15;0.70;;;16.90;99.90;;;;;;4170267;34;20114;-86
2021/01/06 04:12:16;;;;;;;6.37;0.85;;;17.00;99.90;;;;;;4157877;34;20115;-85
2021/01/06 04:14:45;;;;;;;4.22;0.90;;;17.10;99.90;;;;;;4161891;34;20055;-85
2021/01/06 04:17:23;;;;;;;10.15;1.40;;;17.10;99.90;;;;;;4156773;34;20165;-86
2021/01/06 04:19:56;;;;;;;6.47;1.30;;;17.10;99.90;;;;;;4154354;34;20048;-85
2021/01/06 04:22:45;;;;;;;7.50;0.75;;;17.20;99.90;;;;;;4153289;34;20127;-86
2021/01/06 04:25:23;;;;;;;5.53;1.58;;;17.20;99.90;;;;;;4163464;34;20392;-86
2021/01/06 04:28:06;;;;;;;5.37;1.52;;;17.30;99.90;;;;;;4160580;34;20075;-85
2021/01/06 04:30:36;;;;;;;6.22;1.20;;;17.30;99.90;;;;;;4157253;34;20111;-86
2021/01/06 04:33:10;;;;;;;9.93;1.62;;;17.30;99.90;;;;;;4152404;34;20095;-85
2021/01/06 04:35:38;;;;;;;1.80;0.57;;;17.30;99.90;;;;;;4154694;34;20072;-85
2021/01/06 04:38:06;;;;;;;5.78;1.12;;;17.40;99.90;;;;;;4152098;34;20115;-85
2021/01/06 04:40:43;;;;;;;2.83;0.70;;;17.40;99.90;;;;;;4154365;34;20158;-85
2021/01/06 04:43:37;;;;;;;3.55;0.70;;;17.40;99.90;;;;;;4152687;34;20133;-85
2021/01/06 04:46:17;;;;;;;7.05;1.33;;;17.50;99.90;;;;;;4153231;34;20201;-86
2021/01/06 04:48:51;;;;;;;5.10;1.17;;;17.50;99.90;;;;;;4160169;34;20064;-85
2021/01/06 04:51:19;;;;;;;6.43;1.23;;;17.50;99.90;;;;;;4158278;34;20433;-85
2021/01/06 04:54:13;;;;;;;3.03;0.95;;;17.50;99.90;;;;;;4138231;34;20149;-85
2021/01/06 04:56:43;;;;;;;5.95;1.00;;;17.50;99.90;;;;;;4156629;34;20113;-85
2021/01/06 04:59:24;;;;;;;5.07;1.00;;;17.50;99.90;;;;;;4160569;34;20130;-86
2021/01/06 05:02:10;;;;;;;40.90;38.05;;;17.50;99.90;;;;;;4155177;34;20103;-85
2021/01/06 05:05:01;;;;;;;7.35;1.25;;;17.50;99.90;;;;;;4151661;34;20131;-86
2021/01/06 05:07:47;;;;;;;4.07;0.65;;;17.40;99.90;;;;;;4151702;34;20115;-85
2021/01/06 05:10:29;;;;;;;2.20;0.75;;;17.40;99.90;;;;;;4164371;34;20060;-86
2021/01/06 05:13:11;;;;;;;8.20;1.00;;;17.40;99.90;;;;;;4162619;34;20196;-85
2021/01/06 05:15:48;;;;;;;5.03;1.52;;;17.30;99.90;;;;;;4151196;34;20143;-86
2021/01/06 05:18:17;;;;;;;3.25;1.00;;;17.30;99.90;;;;;;4167894;34;20419;-85
2021/01/06 05:20:45;;;;;;;6.60;1.17;;;17.40;99.90;;;;;;4164366;34;20456;-86
2021/01/06 05:23:27;;;;;;;4.15;0.82;;;17.40;99.90;;;;;;4154253;34;20148;-85
2021/01/06 05:25:59;;;;;;;8.25;1.20;;;17.40;99.90;;;;;;4156136;34;20155;-85
2021/01/06 05:28:27;;;;;;;3.72;1.05;;;17.40;99.90;;;;;;4162272;34;20059;-86
2021/01/06 05:30:58;;;;;;;5.20;1.50;;;17.50;99.90;;;;;;4147992;34;20160;-85
2021/01/06 05:33:36;;;;;;;2.72;0.90;;;17.50;99.90;;;;;;4144550;34;20118;-85
2021/01/06 05:36:05;;;;;;;1.95;0.80;;;17.50;99.90;;;;;;4153198;34;20099;-85
2021/01/06 05:38:33;;;;;;;4.43;0.90;;;17.50;99.90;;;;;;4164783;34;20062;-85
2021/01/06 05:41:01;;;;;;;4.78;1.15;;;17.40;99.90;;;;;;4157918;34;20048;-86
2021/01/06 05:43:29;;;;;;;4.12;1.10;;;17.50;99.90;;;;;;4150948;34;20115;-85
2021/01/06 05:46:03;;;;;;;3.17;0.80;;;17.50;99.90;;;;;;4160592;34;20651;-86
2021/01/06 05:48:42;;;;;;;5.00;0.88;;;17.50;99.90;;;;;;4166866;34;20048;-86
2021/01/06 05:51:30;;;;;;;3.47;0.93;;;17.40;99.90;;;;;;4152742;34;20547;-85
2021/01/06 05:54:15;;;;;;;1.52;0.70;;;17.40;99.90;;;;;;4140931;34;20472;-85
2021/01/06 05:57:12;;;;;;;2.80;0.73;;;17.40;99.90;;;;;;4167561;34;20507;-85
2021/01/06 05:59:46;;;;;;;5.12;1.35;;;17.30;99.90;;;;;;4150627;34;20415;-85
2021/01/06 06:02:27;;;;;;;4.95;1.05;;;17.40;99.90;;;;;;4157705;34;20113;-86
2021/01/06 06:05:30;;;;;;;4.12;0.80;;;17.40;99.90;;;;;;4156816;34;20098;-85
2021/01/06 06:08:07;;;;;;;5.10;1.12;;;17.40;99.90;;;;;;4167267;34;20064;-85
2021/01/06 06:10:59;;;;;;;3.72;1.10;;;17.50;99.90;;;;;;4167088;34;20079;-85
2021/01/06 06:14:01;;;;;;;10.02;0.90;;;17.50;99.90;;;;;;4165470;34;20145;-85
2021/01/06 06:17:03;;;;;;;5.07;1.00;;;17.60;99.90;;;;;;4156034;34;20155;-85
2021/01/06 06:19:47;;;;;;;3.90;0.80;;;17.60;99.90;;;;;;4155781;34;20225;-86
2021/01/06 06:22:48;;;;;;;4.65;1.62;;;17.60;99.90;;;;;;4158781;34;20123;-85
2021/01/06 06:25:23;;;;;;;3.08;0.90;;;17.70;99.90;;;;;;4159408;34;20048;-86
2021/01/06 06:28:01;;;;;;;2.92;0.77;;;17.70;99.90;;;;;;4150589;34;20095;-85
2021/01/06 06:30:37;;;;;;;6.07;1.58;;;17.70;99.90;;;;;;4162700;34;20060;-85
2021/01/06 06:33:32;;;;;;;5.03;1.00;;;17.70;99.90;;;;;;4164124;34;20086;-85
2021/01/06 06:36:09;;;;;;;7.05;1.85;;;17.70;99.90;;;;;;4148037;34;20113;-85
2021/01/06 06:38:45;;;;;;;4.57;1.60;;;17.70;99.90;;;;;;4151729;34;20531;-86
2021/01/06 06:41:22;;;;;;;24.50;22.50;;;17.70;99.90;;;;;;4157747;34;20049;-85
2021/01/06 06:44:09;;;;;;;5.05;1.17;;;17.70;99.90;;;;;;4162512;34;20072;-86
2021/01/06 06:46:57;;;;;;;7.18;1.25;;;17.70;99.90;;;;;;4155565;34;20184;-86
2021/01/06 06:50:02;;;;;;;3.95;0.75;;;17.60;99.90;;;;;;4157043;34;20115;-86
2021/01/06 06:53:06;;;;;;;2.28;1.10;;;17.60;99.90;;;;;;4146123;34;20179;-85
2021/01/06 06:55:35;;;;;;;3.40;0.70;;;17.50;99.90;;;;;;4160156;34;20559;-85
2021/01/06 06:58:28;;;;;;;10.80;1.05;;;17.60;99.90;;;;;;4158906;34;20125;-85
2021/01/06 07:00:58;;;;;;;5.12;1.17;;;17.50;99.90;;;;;;4154376;34;20520;-85
2021/01/06 07:03:38;;;;;;;6.62;1.15;;;17.40;99.90;;;;;;4155580;34;20095;-86
2021/01/06 07:06:10;;;;;;;5.10;1.45;;;17.40;99.90;;;;;;4152208;34;20774;-85
2021/01/06 07:08:46;;;;;;;3.10;0.55;;;17.40;99.90;;;;;;4154894;34;20227;-86
2021/01/06 07:11:23;;;;;;;5.95;0.98;;;17.40;99.90;;;;;;4158575;34;20095;-86
2021/01/06 07:14:26;;;;;;;6.07;1.00;;;17.40;99.90;;;;;;4159049;34;20059;-86
2021/01/06 07:17:26;;;;;;;5.40;1.08;;;17.40;99.90;;;;;;4167693;34;20763;-85
2021/01/06 07:20:07;;;;;;;3.05;0.73;;;17.50;99.90;;;;;;4157218;34;20087;-86
2021/01/06 07:22:52;;;;;;;7.65;0.77;;;17.50;99.90;;;;;;4162102;34;20060;-85
2021/01/06 07:25:33;;;;;;;3.30;0.70;;;17.60;99.90;;;;;;4156777;34;20129;-85
2021/01/06 07:28:05;;;;;;;2.70;1.08;;;17.70;99.90;;;;;;4158654;34;20486;-85
2021/01/06 07:30:36;;;;;;;46.10;42.75;;;17.70;99.90;;;;;;4159208;34;20123;-85
2021/01/06 07:33:12;;;;;;;41.92;39.08;;;17.70;99.90;;;;;;4152767;34;20150;-86
2021/01/06 07:35:42;;;;;;;23.62;21.92;;;17.90;99.90;;;;;;4165753;34;20075;-86
2021/01/06 07:38:11;;;;;;;2.05;0.70;;;17.90;99.90;;;;;;4151271;34;20490;-85
2021/01/06 07:40:42;;;;;;;3.40;0.98;;;17.90;99.90;;;;;;4155191;34;20060;-85
2021/01/06 07:43:10;;;;;;;9.32;1.60;;;17.90;99.90;;;;;;4168113;34;20082;-86
2021/01/06 07:46:02;;;;;;;5.12;1.00;;;17.90;99.90;;;;;;4157375;34;20064;-86
2021/01/06 07:49:00;;;;;;;12.68;1.92;;;17.90;99.90;;;;;;4156827;34;20480;-86
2021/01/06 07:51:35;;;;;;;11.30;7.60;;;17.90;99.90;;;;;;4162687;34;20063;-86
2021/01/06 07:54:09;;;;;;;16.10;14.43;;;17.90;99.90;;;;;;4162681;34;20056;-85
2021/01/06 07:56:40;;;;;;;4.90;0.90;;;17.90;99.90;;;;;;4161941;34;20558;-86
2021/01/06 07:59:23;;;;;;;42.25;39.35;;;17.90;99.90;;;;;;4161099;34;20185;-86
2021/01/06 08:02:10;;;;;;;36.00;33.30;;;18.00;99.90;;;;;;4155862;34;20496;-86
2021/01/06 08:04:56;;;;;;;30.67;28.50;;;18.00;99.90;;;;;;4157774;34;20161;-86
2021/01/06 08:07:24;;;;;;;4.43;1.15;;;18.00;99.90;;;;;;4146633;34;20083;-85
2021/01/06 08:09:53;;;;;;;6.75;2.28;;;18.00;99.90;;;;;;4158504;34;20131;-86
2021/01/06 08:12:26;;;;;;;5.70;1.30;;;18.00;99.90;;;;;;4157433;34;20063;-86
2021/01/06 08:15:18;;;;;;;9.52;1.42;;;18.00;99.90;;;;;;4149374;34;20176;-86
2021/01/06 08:18:03;;;;;;;10.43;4.93;;;18.00;99.90;;;;;;4166235;34;20052;-86
2021/01/06 08:20:39;;;;;;;13.98;12.93;;;18.10;99.90;;;;;;4157727;34;20116;-86
2021/01/06 08:23:19;;;;;;;5.20;1.45;;;18.20;99.90;;;;;;4161926;34;20048;-85
2021/01/06 08:26:17;;;;;;;9.02;1.80;;;18.30;99.90;;;;;;4163484;34;20192;-85
2021/01/06 08:28:45;;;;;;;12.00;10.95;;;18.30;99.90;;;;;;4161957;34;20469;-86
2021/01/06 08:31:16;;;;;;;7.50;4.93;;;18.40;99.90;;;;;;4161360;34;20071;-86
2021/01/06 08:33:53;;;;;;;9.05;7.82;;;18.50;99.90;;;;;;4151817;34;20063;-85
2021/01/06 08:36:31;;;;;;;5.28;2.22;;;18.60;99.90;;;;;;4162580;34;20075;-86
2021/01/06 08:39:23;;;;;;;11.50;1.92;;;18.90;99.90;;;;;;4170552;34;20134;-86
2021/01/06 08:41:54;;;;;;;9.43;1.98;;;19.40;99.90;;;;;;4161185;34;20056;-85
2021/01/06 08:44:43;;;;;;;9.45;8.13;;;19.70;99.90;;;;;;4172858;34;20490;-86
2021/01/06 08:47:29;;;;;;;4.40;1.70;;;19.80;99.90;;;;;;4157565;34;20064;-85
2021/01/06 08:50:15;;;;;;;7.60;5.30;;;20.00;99.90;;;;;;4165616;34;20064;-86
2021/01/06 08:52:49;;;;;;;7.62;1.77;;;20.80;99.90;;;;;;4166457;34;20067;-86
2021/01/06 08:55:36;;;;;;;21.25;19.70;;;20.60;99.90;;;;;;4170870;34;20056;-87
2021/01/06 08:58:12;;;;;;;6.40;2.10;;;21.80;99.90;;;;;;4165835;34;20095;-86
2021/01/06 09:00:42;;;;;;;4.57;1.05;;;21.80;99.90;;;;;;4170421;34;20066;-85
2021/01/06 09:03:43;;;;;;;20.25;18.40;;;21.00;99.90;;;;;;4167673;34;20130;-86
2021/01/06 09:06:11;;;;;;;13.70;12.50;;;21.30;99.90;;;;;;4134396;34;20400;-87
2021/01/06 09:08:39;;;;;;;9.25;4.55;;;23.20;99.90;;;;;;4169426;34;20071;-86
2021/01/06 09:11:18;;;;;;;6.65;5.97;;;22.60;99.90;;;;;;4166649;34;20098;-87
2021/01/06 09:14:04;;;;;;;11.98;11.02;;;22.60;99.90;;;;;;4168872;34;20498;-87
2021/01/06 09:16:49;;;;;;;9.18;3.12;;;23.00;99.90;;;;;;4165583;34;20078;-87
2021/01/06 09:19:58;;;;;;;5.90;4.00;;;22.30;99.90;;;;;;4165077;34;20063;-87
2021/01/06 09:22:26;;;;;;;4.43;1.45;;;24.30;99.90;;;;;;4161883;34;20059;-86
2021/01/06 09:24:55;;;;;;;7.68;6.72;;;23.50;99.90;;;;;;4169643;34;20108;-86
2021/01/06 09:27:43;;;;;;;8.10;2.33;;;22.40;99.90;;;;;;4167233;34;20541;-85
2021/01/06 09:30:15;;;;;;;6.40;2.08;;;21.80;99.90;;;;;;4166924;34;20447;-85
2021/01/06 09:32:46;;;;;;;12.45;11.43;;;21.30;99.90;;;;;;4156108;34;20075;-86
2021/01/06 09:35:19;;;;;;;5.55;1.58;;;20.80;99.90;;;;;;4163383;34;20133;-85
2021/01/06 09:38:08;;;;;;;9.55;1.45;;;20.60;99.90;;;;;;4142778;34;20164;-85
2021/01/06 09:40:37;;;;;;;10.30;1.45;;;20.60;99.90;;;;;;4147905;34;20138;-87
2021/01/06 09:43:16;;;;;;;4.87;1.70;;;20.70;99.90;;;;;;4154109;34;20538;-86
2021/01/06 09:45:45;;;;;;;5.93;1.65;;;20.80;99.90;;;;;;4163267;34;20096;-86
2021/01/06 09:48:15;;;;;;;7.57;2.20;;;21.10;99.90;;;;;;4157597;34;20052;-87
2021/01/06 09:50:53;;;;;;;10.98;6.00;;;21.60;99.90;;;;;;4154672;34;20176;-87
2021/01/06 09:53:25;;;;;;;4.82;3.78;;;23.30;99.90;;;;;;4152156;34;20067;-87
2021/01/06 09:55:56;;;;;;;10.77;7.30;;;25.10;99.90;;;;;;4153117;34;20102;-88
2021/01/06 09:58:37;;;;;;;5.53;1.50;;;26.00;97.00;;;;;;4152715;34;20499;-88
2021/01/06 10:01:05;;;;;;;6.32;3.33;;;26.70;94.70;;;;;;4153820;34;20083;-87
2021/01/06 10:03:39;;;;;;;5.15;1.40;;;27.90;92.70;;;;;;4159279;34;20578;-88
2021/01/06 10:06:45;;;;;;;5.80;1.60;;;26.30;93.90;;;;;;4156157;34;20139;-88
2021/01/06 10:09:40;;;;;;;5.62;3.25;;;26.00;95.10;;;;;;4153482;34;20103;-87
2021/01/06 10:12:17;;;;;;;6.37;4.03;;;26.60;94.10;;;;;;4156139;34;20111;-87
2021/01/06 10:15:29;;;;;;;3.80;2.60;;;28.00;92.90;;;;;;4155514;34;20583;-87
2021/01/06 10:18:23;;;;;;;4.35;1.23;;;28.20;90.50;;;;;;4170708;34;20472;-88
2021/01/06 10:20:54;;;;;;;;;;;26.90;91.50;;;;;;4151122;34;20064;-88
2021/01/06 10:23:37;;;;;;;4.18;3.17;;;26.70;92.20;;;;;;4158053;34;19962;-88
2021/01/06 10:26:24;;;;;;;;;;;27.60;92.10;;;;;;4166901;34;20076;-88
2021/01/06 10:28:52;;;;;;;3.97;3.28;;;29.40;90.00;;;;;;4161112;34;19959;-88
2021/01/06 10:31:24;;;;;;;4.22;3.12;;;29.70;88.30;;;;;;4161034;34;20047;-88
2021/01/06 10:34:09;;;;;;;5.15;2.72;;;29.70;87.40;;;;;;4162507;34;20117;-89
2021/01/06 10:36:57;;;;;;;3.95;1.50;;;30.10;86.30;;;;;;4163006;34;20117;-88
2021/01/06 10:39:44;;;;;;;3.75;0.88;;;28.30;88.00;;;;;;4163400;34;20107;-87
2021/01/06 10:42:22;;;;;;;4.87;1.95;;;27.00;91.50;;;;;;4163122;34;20452;-88
2021/01/06 10:45:01;;;;;;;4.50;3.10;;;27.50;91.10;;;;;;4169820;34;20051;-88
2021/01/06 10:47:32;;;;;;;2.87;0.98;;;28.50;89.50;;;;;;4164896;34;20129;-87
2021/01/06 10:50:04;;;;;;;7.28;1.20;;;27.70;90.40;;;;;;4170374;34;20112;-88
2021/01/06 10:52:57;;;;;;;11.27;3.22;;;26.50;92.60;;;;;;4166632;34;20052;-88
2021/01/06 10:55:45;;;;;;;4.53;2.90;;;26.50;91.90;;;;;;4163934;34;20095;-88
2021/01/06 10:58:14;;;;;;;9.95;2.85;;;29.30;87.80;;;;;;4142910;34;20140;-87
2021/01/06 11:01:10;;;;;;;4.32;2.28;;;30.20;82.90;;;;;;4167660;34;20113;-87
2021/01/06 11:04:17;;;;;;;4.95;2.47;;;30.10;82.20;;;;;;4165305;34;20098;-87
2021/01/06 11:07:21;;;;;;;6.45;2.80;;;30.80;79.80;;;;;;4166614;34;20475;-88
2021/01/06 11:10:49;;;;;;;4.60;2.33;;;31.20;79.00;;;;;;4157418;34;20266;-88
2021/01/06 11:13:29;;;;;;;3.97;2.67;;;30.80;79.70;;;;;;4121034;34;20255;-87
2021/01/06 11:15:59;;;;;;;6.10;2.87;;;30.50;81.40;;;;;;4121140;34;20095;-88
2021/01/06 11:18:37;;;;;;;4.72;1.95;;;30.40;81.50;;;;;;4143268;34;20135;-88
2021/01/06 11:21:44;;;;;;;5.65;2.45;;;29.30;82.40;;;;;;4165825;34;20100;-88
2021/01/06 11:24:53;;;;;;;7.55;1.30;;;30.80;80.50;;;;;;4167476;34;20062;-88
2021/01/06 11:27:44;;;;;;;4.80;2.15;;;28.90;82.90;;;;;;4148106;34;20395;-88
2021/01/06 11:30:26;;;;;;;4.35;2.22;;;29.20;83.50;;;;;;4158537;34;20125;-89
2021/01/06 11:33:14;;;;;;;10.30;1.85;;;29.40;82.90;;;;;;4159098;34;20088;-88
2021/01/06 11:35:44;;;;;;;4.47;1.10;;;27.70;88.30;;;;;;4158986;34;20052;-87
2021/01/06 11:38:49;;;;;;;16.85;1.95;;;27.30;89.10;;;;;;4156427;34;20122;-87
2021/01/06 11:41:25;;;;;;;4.20;1.20;;;26.80;90.70;;;;;;4151497;34;20121;-87
2021/01/06 11:43:58;;;;;;;4.50;1.17;;;25.90;91.80;;;;;;4159710;34;20091;-87
2021/01/06 11:46:26;;;;;;;7.75;2.20;;;25.70;93.10;;;;;;4165074;34;20164;-88
2021/01/06 11:49:31;;;;;;;6.22;1.20;;;27.50;90.40;;;;;;4168124;34;20063;-87
2021/01/06 11:52:38;;;;;;;6.22;1.90;;;27.80;89.30;;;;;;4163483;34;20057;-87
2021/01/06 11:55:38;;;;;;;6.47;1.83;;;27.80;88.40;;;;;;4164736;34;20064;-87
2021/01/06 11:58:35;;;;;;;5.80;1.50;;;26.50;91.40;;;;;;4167195;34;20570;-88
2021/01/06 12:01:13;;;;;;;7.03;1.92;;;26.30;92.50;;;;;;4160059;34;20064;-88
2021/01/06 12:04:26;;;;;;;5.68;1.75;;;26.40;92.40;;;;;;4168461;34;20115;-86
2021/01/06 12:07:00;;;;;;;8.07;1.70;;;28.00;90.10;;;;;;4139567;34;20068;-88
2021/01/06 12:09:41;;;;;;;9.90;1.37;;;28.00;89.50;;;;;;4164663;34;20117;-87
2021/01/06 12:12:46;;;;;;;7.03;1.50;;;26.40;91.20;;;;;;4165554;34;20115;-88
2021/01/06 12:15:33;;;;;;;9.02;1.48;;;26.30;92.60;;;;;;4152533;34;20060;-87
2021/01/06 12:18:05;;;;;;;7.30;1.83;;;26.70;91.90;;;;;;4159693;34;20057;-87
2021/01/06 12:20:44;;;;;;;7.40;1.62;;;26.40;92.20;;;;;;4167250;34;20134;-87
2021/01/06 12:23:16;;;;;;;8.85;1.42;;;25.80;93.40;;;;;;4170743;34;20060;-87
2021/01/06 12:25:57;;;;;;;9.75;1.95;;;25.80;92.90;;;;;;4167515;34;20083;-87
2021/01/06 12:28:34;;;;;;;2.80;1.52;;;25.30;94.30;;;;;;4168962;34;20688;-87
2021/01/06 12:31:23;;;;;;;12.07;1.45;;;25.40;94.50;;;;;;4169009;34;20086;-86
2021/01/06 12:34:00;;;;;;;9.98;1.83;;;25.00;95.00;;;;;;4165426;34;20164;-87
2021/01/06 12:36:33;;;;;;;3.83;1.33;;;25.40;94.30;;;;;;4166015;34;20125;-88
2021/01/06 12:39:36;;;;;;;4.28;0.93;;;25.50;95.30;;;;;;4168704;34;20052;-87
2021/01/06 12:42:10;;;;;;;14.38;1.90;;;24.90;95.50;;;;;;4136508;34;20060;-88
2021/01/06 12:44:43;;;;;;;4.60;1.40;;;25.00;95.90;;;;;;4152512;34;20126;-87
2021/01/06 12:47:21;;;;;;;7.15;1.52;;;25.20;95.70;;;;;;4162000;34;20554;-87
2021/01/06 12:50:32;;;;;;;5.60;1.55;;;25.70;94.80;;;;;;4163243;34;20055;-87
2021/01/06 12:53:18;;;;;;;3.40;1.48;;;26.50;93.90;;;;;;4152410;34;20117;-88
2021/01/06 12:56:04;;;;;;;8.43;1.65;;;26.70;93.40;;;;;;4179421;34;20107;-88
2021/01/06 12:58:45;;;;;;;10.27;1.65;;;25.90;94.20;;;;;;4147819;34;20068;-87
2021/01/06 13:01:33;;;;;;;8.00;1.90;;;25.00;95.40;;;;;;4162340;34;20078;-87
2021/01/06 13:04:06;;;;;;;5.85;1.25;;;25.10;96.10;;;;;;4165800;34;20068;-87
2021/01/06 13:06:45;;;;;;;8.13;2.03;;;25.40;95.50;;;;;;4158895;34;20064;-87
2021/01/06 13:09:13;;;;;;;12.18;2.05;;;25.60;95.20;;;;;;4166551;34;20072;-88
2021/01/06 13:11:48;;;;;;;6.53;1.25;;;25.80;94.60;;;;;;4171012;34;20110;-87
2021/01/06 13:14:26;;;;;;;9.35;1.80;;;25.80;95.20;;;;;;4153781;34;20063;-87
2021/01/06 13:17:05;;;;;;;13.07;2.45;;;25.90;94.80;;;;;;4160963;34;20266;-87
2021/01/06 13:19:33;;;;;;;11.23;2.28;;;25.50;95.20;;;;;;4164873;34;20519;-87
2021/01/06 13:22:05;;;;;;;8.88;1.50;;;25.20;95.90;;;;;;4162797;34;20860;-87
2021/01/06 13:24:35;;;;;;;8.77;1.77;;;25.40;96.00;;;;;;4160191;34;20067;-88
2021/01/06 13:27:07;;;;;;;5.85;1.73;;;25.40;96.00;;;;;;4164488;34;20455;-87
2021/01/06 13:29:59;;;;;;;9.27;2.03;;;24.70;97.00;;;;;;4158494;34;20103;-87
2021/01/06 13:33:11;;;;;;;10.80;2.20;;;24.40;98.20;;;;;;4165197;34;20175;-86
2021/01/06 13:35:58;;;;;;;8.82;2.00;;;24.00;99.30;;;;;;4137600;34;20111;-87
2021/01/06 13:38:34;;;;;;;12.60;2.50;;;23.90;99.30;;;;;;4150110;34;20158;-87
2021/01/06 13:41:22;;;;;;;8.35;1.92;;;24.00;99.40;;;;;;4169119;34;20072;-87
2021/01/06 13:44:15;;;;;;;9.48;2.40;;;24.20;98.90;;;;;;4171553;34;20064;-87
2021/01/06 13:47:10;;;;;;;14.77;3.08;;;24.20;98.90;;;;;;4165595;34;20467;-88
2021/01/06 13:49:40;;;;;;;12.85;2.03;;;24.20;98.60;;;;;;4166175;34;20146;-87
2021/01/06 13:52:35;;;;;;;8.05;1.95;;;24.20;99.00;;;;;;4164654;34;20064;-87